Time;durP1;ratioP1;P1;durP2;ratioP2;P2;SDS_P1;SDS_P2;PMS_P1;PMS_P2;Temp;Humidity;BMP_temperature;BMP_pressure;BME280_temperature;BME280_humidity;BME280_pressure;Samples;Min_cycle;Max_cycle;Signal;HPM_P1;HPM_P2
2022/11/03 00:00:46;;;;;;;;;;;23.40;65.20;;;;;;1549406;75;762;-54
2022/11/03 00:02:47;;;;;;;;;;;23.40;65.40;;;;;;1549771;75;734;-58
2022/11/03 00:04:49;;;;;;;;;;;23.40;65.40;;;;;;1554343;75;688;-58
2022/11/03 00:06:52;;;;;;;;;;;23.40;65.40;;;;;;1552563;75;1948;-58
2022/11/03 00:08:54;;;;;;;;;;;23.30;65.50;;;;;;1546785;75;942;-58
2022/11/03 00:10:57;;;;;;;;;;;23.30;65.60;;;;;;1531856;76;1275;-58
2022/11/03 00:12:59;;;;;;;;;;;23.30;65.60;;;;;;1553011;75;1863;-58
2022/11/03 00:15:01;;;;;;;;;;;23.30;65.70;;;;;;1554305;75;832;-57
2022/11/03 00:17:03;;;;;;;;;;;23.30;65.70;;;;;;1555724;75;1144;-55
2022/11/03 00:19:05;;;;;;;;;;;23.30;65.60;;;;;;1557633;75;740;-58
2022/11/03 00:21:08;;;;;;;;;;;23.50;65.60;;;;;;1550855;75;737;-55
2022/11/03 00:23:10;;;;;;;;;;;23.50;65.50;;;;;;1554914;75;1851;-59
2022/11/03 00:25:12;;;;;;;;;;;23.40;65.30;;;;;;1559246;75;790;-59
2022/11/03 00:27:14;;;;;;;;;;;23.40;65.60;;;;;;1545807;75;1956;-59
2022/11/03 00:29:16;;;;;;;;;;;23.50;65.60;;;;;;1552200;75;693;-58
2022/11/03 00:31:18;;;;;;;;;;;23.40;65.50;;;;;;1545578;75;788;-58
2022/11/03 00:33:25;;;;;;;;;;;23.30;65.70;;;;;;1555284;75;735;-59
2022/11/03 00:35:24;;;;;;;;;;;23.30;65.80;;;;;;1551734;75;1400;-59
2022/11/03 00:37:26;;;;;;;;;;;23.20;65.70;;;;;;1536843;75;1147;-58
2022/11/03 00:39:28;;;;;;;;;;;23.20;65.90;;;;;;1542738;75;727;-59
2022/11/03 00:41:30;;;;;;;;;;;23.20;65.90;;;;;;1552253;75;744;-59
2022/11/03 00:43:32;;;;;;;;;;;23.20;66.00;;;;;;1547861;75;781;-58
2022/11/03 00:45:34;;;;;;;;;;;23.20;66.00;;;;;;1539522;75;787;-59
2022/11/03 00:48:28;;;;;;;;;;;23.20;66.00;;;;;;1542948;75;1956;-59
2022/11/03 00:49:39;;;;;;;;;;;23.20;66.00;;;;;;1546256;75;1301;-56
2022/11/03 00:51:41;;;;;;;;;;;23.20;66.20;;;;;;1546948;75;740;-59
2022/11/03 00:53:44;;;;;;;;;;;23.20;66.20;;;;;;1539327;75;818;-59
2022/11/03 00:55:49;;;;;;;;;;;23.20;66.20;;;;;;1543504;75;739;-57
2022/11/03 00:57:52;;;;;;;;;;;23.10;66.30;;;;;;1542571;75;1087;-59
2022/11/03 00:59:54;;;;;;;;;;;23.20;66.30;;;;;;1541914;75;747;-59
2022/11/03 01:01:56;;;;;;;;;;;23.20;66.30;;;;;;1545507;75;784;-58
2022/11/03 01:08:37;;;;;;;;;;;23.10;66.40;;;;;;1549874;75;828;-58
2022/11/03 01:11:42;;;;;;;;;;;23.10;66.40;;;;;;1541737;75;779;-56
2022/11/03 01:12:43;;;;;;;;;;;23.10;66.50;;;;;;1540526;75;1445;-59
2022/11/03 01:14:45;;;;;;;;;;;23.10;66.40;;;;;;1537565;75;772;-58
2022/11/03 01:16:47;;;;;;;;;;;23.10;66.50;;;;;;1548643;75;1160;-58
2022/11/03 01:18:49;;;;;;;;;;;23.10;66.50;;;;;;1550667;75;734;-57
2022/11/03 01:20:57;;;;;;;;;;;23.20;66.60;;;;;;1551503;75;776;-53
2022/11/03 01:22:59;;;;;;;;;;;23.10;66.70;;;;;;1547247;75;717;-58
2022/11/03 01:25:01;;;;;;;;;;;23.20;66.50;;;;;;1541569;75;753;-58
2022/11/03 01:29:50;;;;;;;;;;;23.10;66.40;;;;;;1545555;75;1673;-57
2022/11/03 01:31:52;;;;;;;;;;;23.20;66.30;;;;;;1548290;75;698;-58
2022/11/03 01:33:54;;;;;;;;;;;23.20;66.40;;;;;;1538962;75;778;-58
2022/11/03 01:35:56;;;;;;;;;;;23.20;66.50;;;;;;1541613;75;701;-58
2022/11/03 01:37:58;;;;;;;;;;;23.10;66.40;;;;;;1549020;75;713;-59
2022/11/03 01:40:00;;;;;;;;;;;23.10;66.50;;;;;;1542069;75;789;-59
2022/11/03 01:42:02;;;;;;;;;;;23.20;66.50;;;;;;1542461;75;1025;-58
2022/11/03 01:44:08;;;;;;;;;;;23.20;66.50;;;;;;1541136;75;693;-58
2022/11/03 01:46:12;;;;;;;;;;;23.20;66.50;;;;;;1543494;75;1145;-59
2022/11/03 01:48:14;;;;;;;;;;;23.20;66.50;;;;;;1556003;75;1931;-58
2022/11/03 01:50:18;;;;;;;;;;;23.20;66.50;;;;;;1543302;75;724;-58
2022/11/03 01:52:29;;;;;;;;;;;23.20;66.40;;;;;;1546743;75;690;-59
2022/11/03 01:54:31;;;;;;;;;;;23.20;66.40;;;;;;1551438;75;733;-59
2022/11/03 01:56:33;;;;;;;;;;;23.20;66.40;;;;;;1559156;75;1182;-58
2022/11/03 01:58:36;;;;;;;;;;;23.10;66.40;;;;;;1547978;75;700;-59
2022/11/03 02:00:38;;;;;;;;;;;23.20;66.40;;;;;;1550394;75;694;-57
2022/11/03 02:02:40;;;;;;;;;;;23.20;66.30;;;;;;1535442;75;796;-58
2022/11/03 02:04:42;;;;;;;;;;;23.30;66.30;;;;;;1550244;75;674;-58
2022/11/03 02:06:44;;;;;;;;;;;23.20;66.30;;;;;;1535468;75;1142;-58
2022/11/03 02:08:52;;;;;;;;;;;23.20;66.30;;;;;;1558815;75;668;-56
2022/11/03 02:10:54;;;;;;;;;;;23.20;66.30;;;;;;1551682;75;917;-58
2022/11/03 02:12:56;;;;;;;;;;;23.20;66.30;;;;;;1539144;76;664;-58
2022/11/03 02:15:00;;;;;;;;;;;23.20;66.30;;;;;;1558157;75;765;-57
2022/11/03 02:17:02;;;;;;;;;;;23.20;66.30;;;;;;1545260;75;1147;-58
2022/11/03 02:19:04;;;;;;;;;;;23.20;66.30;;;;;;1540798;75;669;-57
2022/11/03 02:21:08;;;;;;;;;;;23.20;66.30;;;;;;1543425;75;789;-53
2022/11/03 02:23:17;;;;;;;;;;;23.20;66.30;;;;;;1536945;75;1674;-57
2022/11/03 02:25:37;;;;;;;;;;;23.20;66.30;;;;;;1539675;75;673;-58
2022/11/03 02:27:39;;;;;;;;;;;23.10;66.30;;;;;;1541744;75;1939;-55
2022/11/03 02:29:41;;;;;;;;;;;23.20;66.40;;;;;;1551738;75;913;-57
2022/11/03 02:31:45;;;;;;;;;;;23.10;66.40;;;;;;1557581;75;735;-55
2022/11/03 02:33:48;;;;;;;;;;;23.10;66.40;;;;;;1541933;75;1836;-58
2022/11/03 02:36:04;;;;;;;;;;;23.30;66.40;;;;;;1547691;76;743;-58
2022/11/03 02:38:06;;;;;;;;;;;23.20;66.10;;;;;;1538842;75;886;-55
2022/11/03 02:40:08;;;;;;;;;;;23.20;66.10;;;;;;1527593;76;845;-55
2022/11/03 02:42:10;;;;;;;;;;;23.20;66.10;;;;;;1536436;75;903;-58
2022/11/03 02:44:14;;;;;;;;;;;23.30;66.00;;;;;;1539075;75;753;-56
2022/11/03 02:46:16;;;;;;;;;;;23.30;66.00;;;;;;1545803;75;1799;-58
2022/11/03 02:48:17;;;;;;;;;;;23.20;66.00;;;;;;1547195;75;1941;-58
2022/11/03 02:50:21;;;;;;;;;;;23.30;65.90;;;;;;1565526;75;853;-58
2022/11/03 02:52:37;;;;;;;;;;;23.30;65.80;;;;;;1538304;75;790;-58
2022/11/03 02:54:40;;;;;;;;;;;23.40;65.70;;;;;;1540433;75;831;-54
2022/11/03 02:56:43;;;;;;;;;;;23.40;65.60;;;;;;1548685;75;1214;-58
2022/11/03 02:58:53;;;;;;;;;;;23.40;65.60;;;;;;1557020;75;1816;-58
2022/11/03 03:00:56;;;;;;;;;;;23.40;65.60;;;;;;1530481;75;814;-56
2022/11/03 03:03:06;;;;;;;;;;;23.40;65.50;;;;;;1543445;75;787;-58
2022/11/03 03:05:08;;;;;;;;;;;23.40;65.50;;;;;;1541208;75;762;-57
2022/11/03 03:07:11;;;;;;;;;;;23.40;65.40;;;;;;1554315;75;1950;-58
2022/11/03 03:09:14;;;;;;;;;;;23.50;65.50;;;;;;1542857;75;658;-58
2022/11/03 03:11:35;;;;;;;;;;;23.40;65.40;;;;;;1544397;75;771;-56
2022/11/03 03:13:20;;;;;;;;;;;23.40;65.40;;;;;;1539028;75;1684;-58
2022/11/03 03:15:23;;;;;;;;;;;23.50;65.50;;;;;;1544720;75;807;-58
2022/11/03 03:17:27;;;;;;;;;;;23.40;65.30;;;;;;1544053;75;1884;-58
2022/11/03 03:19:47;;;;;;;;;;;23.50;65.50;;;;;;1542124;75;2167;-57
2022/11/03 03:21:49;;;;;;;;;;;23.40;65.40;;;;;;1539721;75;731;-54
2022/11/03 03:23:52;;;;;;;;;;;23.30;65.40;;;;;;1543912;75;771;-56
2022/11/03 03:25:56;;;;;;;;;;;23.30;65.50;;;;;;1535144;75;799;-58
2022/11/03 03:27:59;;;;;;;;;;;23.30;65.60;;;;;;1537276;75;1948;-58
2022/11/03 03:30:04;;;;;;;;;;;23.30;65.60;;;;;;1543050;75;801;-57
2022/11/03 03:32:07;;;;;;;;;;;23.30;65.60;;;;;;1541789;75;813;-58
2022/11/03 03:34:09;;;;;;;;;;;23.30;65.60;;;;;;1548340;75;707;-58
2022/11/03 03:36:12;;;;;;;;;;;23.30;65.70;;;;;;1560707;75;1134;-58
2022/11/03 03:38:15;;;;;;;;;;;23.30;65.60;;;;;;1537565;75;733;-58
2022/11/03 03:40:18;;;;;;;;;;;23.40;65.60;;;;;;1550247;75;756;-58
2022/11/03 03:42:21;;;;;;;;;;;23.30;65.60;;;;;;1554520;75;2112;-56
2022/11/03 03:44:23;;;;;;;;;;;23.30;65.60;;;;;;1548682;75;772;-58
2022/11/03 03:46:26;;;;;;;;;;;23.30;65.60;;;;;;1547208;76;1112;-59
2022/11/03 03:48:29;;;;;;;;;;;23.30;65.70;;;;;;1549858;75;1916;-58
2022/11/03 03:50:31;;;;;;;;;;;23.30;65.60;;;;;;1543979;75;691;-54
2022/11/03 03:52:33;;;;;;;;;;;23.30;65.60;;;;;;1545550;75;800;-57
2022/11/03 03:54:35;;;;;;;;;;;23.30;65.60;;;;;;1553988;75;798;-56
2022/11/03 03:56:39;;;;;;;;;;;23.30;65.60;;;;;;1546508;75;1137;-54
2022/11/03 03:58:41;;;;;;;;;;;23.30;65.60;;;;;;1547879;75;751;-57
2022/11/03 04:00:43;;;;;;;;;;;23.30;65.60;;;;;;1553442;75;727;-58
2022/11/03 04:02:45;;;;;;;;;;;23.50;65.40;;;;;;1544227;75;800;-57
2022/11/03 04:04:46;;;;;;;;;;;23.40;65.00;;;;;;1533054;75;714;-58
2022/11/03 04:06:48;;;;;;;;;;;23.50;64.90;;;;;;1546759;75;1178;-55
2022/11/03 04:08:50;;;;;;;;;;;23.60;64.70;;;;;;1557787;75;1939;-55
2022/11/03 04:22:32;;;;;;;;;;;23.50;64.50;;;;;;1552509;75;1627;-58
2022/11/03 04:24:34;;;;;;;;;;;23.50;64.60;;;;;;1549493;75;725;-58
2022/11/03 04:26:35;;;;;;;;;;;23.50;64.60;;;;;;1544606;75;1158;-59
2022/11/03 04:28:37;;;;;;;;;;;23.50;64.60;;;;;;1543593;75;1947;-58
2022/11/03 04:30:39;;;;;;;;;;;23.60;64.50;;;;;;1536569;75;764;-58
2022/11/03 04:32:42;;;;;;;;;;;23.50;64.50;;;;;;1542746;75;802;-58
2022/11/03 04:34:46;;;;;;;;;;;23.40;64.50;;;;;;1540676;75;727;-58
2022/11/03 04:36:48;;;;;;;;;;;23.50;64.60;;;;;;1542177;75;1134;-58
2022/11/03 04:38:50;;;;;;;;;;;23.50;64.60;;;;;;1537450;75;730;-59
2022/11/03 04:40:54;;;;;;;;;;;23.50;64.60;;;;;;1552004;75;712;-59
2022/11/03 04:42:56;;;;;;;;;;;23.50;64.60;;;;;;1543768;75;1606;-58
2022/11/03 04:44:58;;;;;;;;;;;23.40;64.50;;;;;;1542328;75;727;-58
2022/11/03 04:47:00;;;;;;;;;;;23.50;64.60;;;;;;1533811;75;1134;-58
2022/11/03 04:49:02;;;;;;;;;;;23.40;64.50;;;;;;1541359;75;1948;-58
2022/11/03 04:51:05;;;;;;;;;;;23.40;64.50;;;;;;1530379;76;815;-58
2022/11/03 04:53:13;;;;;;;;;;;23.40;64.50;;;;;;1546154;75;1901;-59
2022/11/03 04:55:17;;;;;;;;;;;23.40;64.60;;;;;;1537160;75;810;-58
2022/11/03 04:57:18;;;;;;;;;;;23.40;64.60;;;;;;1548614;75;1142;-59
2022/11/03 04:59:20;;;;;;;;;;;23.30;64.80;;;;;;1543924;75;739;-57
2022/11/03 05:01:22;;;;;;;;;;;23.30;64.90;;;;;;1533359;75;656;-57
2022/11/03 05:03:26;;;;;;;;;;;23.30;65.10;;;;;;1548369;75;738;-58
2022/11/03 05:05:28;;;;;;;;;;;23.20;65.10;;;;;;1541363;76;1018;-58
2022/11/03 05:07:31;;;;;;;;;;;23.20;65.30;;;;;;1547280;75;1129;-58
2022/11/03 05:09:33;;;;;;;;;;;23.20;65.30;;;;;;1544441;75;1942;-54
2022/11/03 05:11:37;;;;;;;;;;;23.20;65.20;;;;;;1551040;75;730;-54
2022/11/03 05:13:39;;;;;;;;;;;23.30;65.40;;;;;;1549411;76;1707;-57
2022/11/03 05:15:41;;;;;;;;;;;23.20;65.30;;;;;;1547907;75;824;-58
2022/11/03 05:17:43;;;;;;;;;;;23.20;65.40;;;;;;1549720;75;1121;-57
2022/11/03 05:19:45;;;;;;;;;;;23.20;65.50;;;;;;1551728;75;701;-58
2022/11/03 05:21:48;;;;;;;;;;;23.20;65.50;;;;;;1549697;75;737;-57
2022/11/03 05:23:52;;;;;;;;;;;23.10;65.60;;;;;;1547827;76;663;-58
2022/11/03 05:25:54;;;;;;;;;;;23.10;65.70;;;;;;1551124;75;740;-58
2022/11/03 05:27:55;;;;;;;;;;;23.10;65.70;;;;;;1549567;76;1969;-57
2022/11/03 05:29:58;;;;;;;;;;;23.20;65.70;;;;;;1548894;75;707;-58
2022/11/03 05:31:59;;;;;;;;;;;23.20;65.70;;;;;;1563361;75;731;-57
2022/11/03 05:34:02;;;;;;;;;;;23.10;65.90;;;;;;1562380;75;758;-57
2022/11/03 05:36:06;;;;;;;;;;;23.10;65.90;;;;;;1557809;75;1132;-57
2022/11/03 05:38:11;;;;;;;;;;;23.00;65.90;;;;;;1555474;75;1843;-57
2022/11/03 05:40:23;;;;;;;;;;;23.10;66.00;;;;;;1568197;75;752;-58
2022/11/03 05:42:27;;;;;;;;;;;23.10;66.10;;;;;;1550502;75;745;-58
2022/11/03 05:44:33;;;;;;;;;;;23.00;66.10;;;;;;1554368;75;852;-57
2022/11/03 05:46:35;;;;;;;;;;;23.00;66.10;;;;;;1554222;75;1797;-57
2022/11/03 05:48:38;;;;;;;;;;;23.00;66.10;;;;;;1540388;76;1958;-57
2022/11/03 05:50:40;;;;;;;;;;;22.90;66.20;;;;;;1543641;75;1602;-58
2022/11/03 05:52:43;;;;;;;;;;;23.00;66.30;;;;;;1544105;75;726;-58
2022/11/03 05:54:45;;;;;;;;;;;22.90;66.30;;;;;;1561587;75;777;-57
2022/11/03 05:56:46;;;;;;;;;;;22.90;66.30;;;;;;1553310;75;1132;-57
2022/11/03 05:58:49;;;;;;;;;;;22.90;66.30;;;;;;1556164;75;729;-57
2022/11/03 06:00:50;;;;;;;;;;;22.90;66.40;;;;;;1549897;75;683;-57
2022/11/03 06:02:54;;;;;;;;;;;23.00;66.40;;;;;;1532650;75;735;-57
2022/11/03 06:04:55;;;;;;;;;;;22.90;66.40;;;;;;1539837;75;879;-57
2022/11/03 06:07:02;;;;;;;;;;;22.90;66.40;;;;;;1561973;75;1171;-57
2022/11/03 06:09:15;;;;;;;;;;;22.90;66.40;;;;;;1557246;75;1979;-58
2022/11/03 06:11:21;;;;;;;;;;;23.00;66.40;;;;;;1547994;75;808;-58
2022/11/03 06:13:27;;;;;;;;;;;22.90;66.50;;;;;;1546305;76;1852;-58
2022/11/03 06:15:30;;;;;;;;;;;23.00;66.60;;;;;;1517895;76;734;-58
2022/11/03 06:17:32;;;;;;;;;;;22.90;66.60;;;;;;1536602;76;1135;-58
2022/11/03 06:19:35;;;;;;;;;;;22.90;66.70;;;;;;1551182;75;926;-56
2022/11/03 06:21:37;;;;;;;;;;;22.90;66.80;;;;;;1561221;75;1840;-57
2022/11/03 06:23:39;;;;;;;;;;;23.00;66.80;;;;;;1555330;75;679;-57
2022/11/03 06:25:42;;;;;;;;;;;23.00;66.70;;;;;;1560860;75;783;-59
2022/11/03 06:27:44;;;;;;;;;;;23.00;66.90;;;;;;1560170;75;1139;-60
2022/11/03 06:29:47;;;;;;;;;;;23.00;67.00;;;;;;1564063;75;1937;-60
2022/11/03 06:31:49;;;;;;;;;;;23.10;66.70;;;;;;1557314;75;1120;-60
2022/11/03 06:33:51;;;;;;;;;;;23.20;66.00;;;;;;1548039;75;737;-59
2022/11/03 06:35:54;;;;;;;;;;;23.20;65.60;;;;;;1544504;75;752;-60
2022/11/03 06:37:56;;;;;;;;;;;23.20;65.30;;;;;;1555109;75;1138;-60
2022/11/03 06:39:59;;;;;;;;;;;23.30;65.30;;;;;;1565611;75;694;-60
2022/11/03 06:42:03;;;;;;;;;;;23.20;65.20;;;;;;1543526;75;697;-59
2022/11/03 06:44:24;;;;;;;;;;;23.20;65.20;;;;;;1551178;75;1807;-59
2022/11/03 06:46:26;;;;;;;;;;;23.20;65.20;;;;;;1547693;75;1157;-59
2022/11/03 06:48:28;;;;;;;;;;;23.10;65.10;;;;;;1545817;75;1935;-60
2022/11/03 06:50:33;;;;;;;;;;;23.10;65.20;;;;;;1546481;75;740;-58
2022/11/03 06:52:37;;;;;;;;;;;23.20;65.20;;;;;;1546141;75;972;-60
2022/11/03 06:54:39;;;;;;;;;;;23.20;65.10;;;;;;1542399;75;759;-59
2022/11/03 06:56:41;;;;;;;;;;;23.20;65.00;;;;;;1553141;75;1156;-58
2022/11/03 06:58:43;;;;;;;;;;;23.20;64.90;;;;;;1549084;75;710;-55
2022/11/03 07:00:44;;;;;;;;;;;23.20;64.90;;;;;;1546176;75;708;-58
2022/11/03 07:03:05;;;;;;;;;;;23.20;64.80;;;;;;1552025;75;667;-55
2022/11/03 07:05:11;;;;;;;;;;;23.20;64.80;;;;;;1541740;75;788;-57
2022/11/03 07:07:13;;;;;;;;;;;23.20;64.80;;;;;;1549309;75;1765;-60
2022/11/03 07:09:22;;;;;;;;;;;23.10;64.80;;;;;;1566886;75;1925;-55
2022/11/03 07:11:24;;;;;;;;;;;23.10;64.80;;;;;;1555645;75;946;-58
2022/11/03 07:13:26;;;;;;;;;;;23.10;64.90;;;;;;1558628;75;764;-56
2022/11/03 07:15:30;;;;;;;;;;;23.10;64.90;;;;;;1561929;75;738;-57
2022/11/03 07:17:32;;;;;;;;;;;23.00;64.80;;;;;;1557996;75;1849;-58
2022/11/03 07:19:37;;;;;;;;;;;23.10;65.00;;;;;;1529098;76;798;-58
2022/11/03 07:21:49;;;;;;;;;;;23.10;64.90;;;;;;1551344;75;688;-55
2022/11/03 07:23:51;;;;;;;;;;;23.10;64.90;;;;;;1552606;75;690;-55
2022/11/03 07:25:54;;;;;;;;;;;23.10;64.90;;;;;;1549302;75;717;-58
2022/11/03 07:27:56;;;;;;;;;;;23.10;64.90;;;;;;1558769;75;1149;-56
2022/11/03 07:29:59;;;;;;;;;;;23.10;64.70;;;;;;1553550;75;1924;-56
2022/11/03 07:32:00;;;;;;;;;;;23.10;64.70;;;;;;1555038;75;759;-57
2022/11/03 07:34:04;;;;;;;;;;;23.10;64.70;;;;;;1554014;75;715;-57
2022/11/03 07:36:07;;;;;;;;;;;23.10;64.60;;;;;;1563003;75;1148;-58
2022/11/03 07:38:10;;;;;;;;;;;23.20;64.50;;;;;;1555227;75;727;-57
2022/11/03 07:40:14;;;;;;;;;;;23.10;64.30;;;;;;1555834;75;1922;-58
2022/11/03 07:42:17;;;;;;;;;;;23.10;64.40;;;;;;1554484;75;1347;-54
2022/11/03 07:44:22;;;;;;;;;;;23.10;64.50;;;;;;1558824;75;669;-57
2022/11/03 07:46:24;;;;;;;;;;;23.00;64.50;;;;;;1549459;75;1157;-58
2022/11/03 07:48:32;;;;;;;;;;;23.00;64.60;;;;;;1542729;75;815;-58
2022/11/03 07:50:34;;;;;;;;;;;22.90;64.70;;;;;;1556365;75;1928;-58
2022/11/03 07:52:36;;;;;;;;;;;22.90;64.80;;;;;;1551017;75;756;-58
2022/11/03 07:54:38;;;;;;;;;;;22.90;64.90;;;;;;1542798;76;792;-55
2022/11/03 07:56:41;;;;;;;;;;;22.90;65.00;;;;;;1552425;75;1239;-57
2022/11/03 07:58:42;;;;;;;;;;;22.90;65.00;;;;;;1555799;75;725;-56
2022/11/03 08:00:44;;;;;;;;;;;22.90;65.00;;;;;;1541514;75;664;-57
2022/11/03 08:02:48;;;;;;;;;;;22.90;65.10;;;;;;1543614;76;804;-53
2022/11/03 08:04:50;;;;;;;;;;;22.90;65.10;;;;;;1537723;75;1785;-57
2022/11/03 08:06:52;;;;;;;;;;;22.80;65.00;;;;;;1533087;75;1178;-56
2022/11/03 08:08:53;;;;;;;;;;;22.80;65.00;;;;;;1548290;75;1945;-58
2022/11/03 08:10:55;;;;;;;;;;;22.80;65.10;;;;;;1544283;75;691;-58
2022/11/03 08:12:57;;;;;;;;;;;22.80;65.10;;;;;;1545404;75;772;-57
2022/11/03 08:14:59;;;;;;;;;;;22.80;65.10;;;;;;1555293;75;878;-56
2022/11/03 08:17:01;;;;;;;;;;;22.80;65.20;;;;;;1542998;75;1106;-58
2022/11/03 08:19:03;;;;;;;;;;;22.80;65.20;;;;;;1536440;75;813;-57
2022/11/03 08:21:05;;;;;;;;;;;22.70;65.20;;;;;;1538173;75;746;-58
2022/11/03 08:23:07;;;;;;;;;;;22.80;65.20;;;;;;1551644;75;744;-58
2022/11/03 08:25:09;;;;;;;;;;;22.70;65.20;;;;;;1556920;75;819;-58
2022/11/03 08:27:11;;;;;;;;;;;22.70;65.20;;;;;;1539605;75;1176;-58
2022/11/03 08:29:13;;;;;;;;;;;22.70;65.20;;;;;;1550131;75;1935;-59
2022/11/03 08:31:15;;;;;;;;;;;22.70;65.20;;;;;;1527068;75;1123;-58
2022/11/03 08:33:17;;;;;;;;;;;22.80;65.10;;;;;;1534032;75;728;-57
2022/11/03 08:35:19;;;;;;;;;;;22.80;65.10;;;;;;1546485;75;745;-55
2022/11/03 08:37:20;;;;;;;;;;;22.90;65.00;;;;;;1550535;75;1137;-58
2022/11/03 08:39:22;;;;;;;;;;;22.90;64.90;;;;;;1554064;75;719;-59
2022/11/03 08:41:24;;;;;;;;;;;23.00;64.50;;;;;;1559450;75;747;-60
2022/11/03 08:43:26;;;;;;;;;;;23.10;64.60;;;;;;1562534;75;764;-58
2022/11/03 08:45:29;;;;;;;;;;;23.10;64.40;;;;;;1560280;75;704;-58
2022/11/03 08:47:30;;;;;;;;;;;23.20;64.00;;;;;;1559920;75;1146;-58
2022/11/03 08:49:32;;;;;;;;;;;23.10;63.90;;;;;;1559346;75;1943;-57
2022/11/03 08:51:34;;;;;;;;;;;23.10;63.80;;;;;;1562401;75;728;-56
2022/11/03 08:53:37;;;;;;;;;;;23.00;63.40;;;;;;1557384;75;752;-56
2022/11/03 08:55:39;;;;;;;;;;;23.00;63.50;;;;;;1560214;75;802;-59
2022/11/03 08:57:41;;;;;;;;;;;23.00;63.50;;;;;;1562999;75;1151;-57
2022/11/03 08:59:43;;;;;;;;;;;23.00;63.20;;;;;;1561880;75;1531;-54
2022/11/03 09:01:45;;;;;;;;;;;23.00;62.70;;;;;;1563423;75;729;-58
2022/11/03 09:03:47;;;;;;;;;;;23.10;62.40;;;;;;1550926;75;796;-55
2022/11/03 09:05:49;;;;;;;;;;;23.10;62.00;;;;;;1556753;75;689;-58
2022/11/03 09:07:51;;;;;;;;;;;23.20;61.50;;;;;;1547717;75;1226;-58
2022/11/03 09:09:53;;;;;;;;;;;23.20;61.30;;;;;;1550006;75;1921;-58
2022/11/03 09:11:54;;;;;;;;;;;23.20;61.10;;;;;;1546485;75;774;-58
2022/11/03 09:13:56;;;;;;;;;;;23.20;60.70;;;;;;1548550;75;790;-58
2022/11/03 09:15:58;;;;;;;;;;;23.20;60.40;;;;;;1550725;75;1151;-58
2022/11/03 09:18:00;;;;;;;;;;;23.20;60.20;;;;;;1546578;76;738;-55
2022/11/03 09:20:02;;;;;;;;;;;23.20;60.20;;;;;;1552747;75;785;-58
2022/11/03 09:22:04;;;;;;;;;;;23.30;60.00;;;;;;1549834;75;789;-57
2022/11/03 09:24:06;;;;;;;;;;;23.30;59.70;;;;;;1544053;75;764;-58
2022/11/03 09:26:08;;;;;;;;;;;23.30;59.60;;;;;;1548278;75;1160;-58
2022/11/03 09:28:10;;;;;;;;;;;23.40;59.40;;;;;;1547666;75;726;-58
2022/11/03 09:30:12;;;;;;;;;;;23.30;59.50;;;;;;1549324;75;1924;-58
2022/11/03 09:32:14;;;;;;;;;;;23.40;59.40;;;;;;1556017;75;745;-58
2022/11/03 09:34:16;;;;;;;;;;;23.40;59.50;;;;;;1563052;75;753;-58
2022/11/03 09:36:18;;;;;;;;;;;23.40;59.50;;;;;;1555806;75;1100;-59
2022/11/03 09:38:20;;;;;;;;;;;23.50;59.60;;;;;;1552296;75;729;-58
2022/11/03 09:40:24;;;;;;;;;;;23.50;59.60;;;;;;1549476;75;877;-58
2022/11/03 09:42:25;;;;;;;;;;;23.50;59.60;;;;;;1547099;75;825;-57
2022/11/03 09:44:28;;;;;;;;;;;23.40;59.40;;;;;;1559216;75;712;-59
2022/11/03 09:46:29;;;;;;;;;;;23.40;59.50;;;;;;1554701;75;1146;-56
2022/11/03 09:48:31;;;;;;;;;;;23.40;59.40;;;;;;1560035;75;655;-58
2022/11/03 09:50:33;;;;;;;;;;;23.50;59.70;;;;;;1553745;75;1938;-58
2022/11/03 09:52:35;;;;;;;;;;;23.50;59.60;;;;;;1558404;75;760;-56
2022/11/03 09:54:37;;;;;;;;;;;23.50;59.60;;;;;;1542560;76;679;-58
2022/11/03 09:56:39;;;;;;;;;;;23.50;59.80;;;;;;1550095;75;1595;-56
2022/11/03 09:58:41;;;;;;;;;;;23.60;59.70;;;;;;1544152;76;660;-58
2022/11/03 10:00:43;;;;;;;;;;;23.50;59.60;;;;;;1550658;75;723;-58
2022/11/03 10:02:45;;;;;;;;;;;23.50;59.80;;;;;;1557396;75;711;-59
2022/11/03 10:04:47;;;;;;;;;;;23.40;60.00;;;;;;1540279;75;613;-59
2022/11/03 10:06:48;;;;;;;;;;;23.50;60.20;;;;;;1547886;75;1111;-57
2022/11/03 10:08:50;;;;;;;;;;;23.40;60.20;;;;;;1544735;75;729;-59
2022/11/03 10:10:52;;;;;;;;;;;23.40;60.20;;;;;;1542435;75;1937;-57
2022/11/03 10:12:54;;;;;;;;;;;23.40;60.50;;;;;;1539120;75;781;-56
2022/11/03 10:14:56;;;;;;;;;;;23.30;60.60;;;;;;1543260;75;723;-58
2022/11/03 10:17:02;;;;;;;;;;;23.40;60.70;;;;;;1549822;75;1182;-57
2022/11/03 10:19:01;;;;;;;;;;;23.40;61.00;;;;;;1549309;75;1273;-59
2022/11/03 10:21:05;;;;;;;;;;;23.30;61.40;;;;;;1535276;75;808;-58
2022/11/03 10:23:07;;;;;;;;;;;23.30;61.80;;;;;;1534548;75;1720;-55
2022/11/03 10:25:26;;;;;;;;;;;23.30;61.90;;;;;;1523869;75;767;-54
2022/11/03 10:27:28;;;;;;;;;;;23.30;62.10;;;;;;1537571;75;1820;-58
2022/11/03 10:29:32;;;;;;;;;;;23.20;62.50;;;;;;1549669;75;729;-58
2022/11/03 10:31:36;;;;;;;;;;;23.20;62.90;;;;;;1550281;75;2022;-58
2022/11/03 10:33:39;;;;;;;;;;;23.10;63.50;;;;;;1525954;75;683;-58
2022/11/03 10:35:41;;;;;;;;;;;23.10;63.60;;;;;;1535928;75;1144;-57
2022/11/03 10:37:43;;;;;;;;;;;23.20;63.70;;;;;;1547511;76;1149;-59
2022/11/03 10:39:45;;;;;;;;;;;23.10;63.80;;;;;;1558040;75;709;-58
2022/11/03 10:41:48;;;;;;;;;;;23.20;63.70;;;;;;1557784;75;559;-57
2022/11/03 10:44:00;;;;;;;;;;;23.10;63.50;;;;;;1551226;75;1857;-59
2022/11/03 10:46:15;;;;;;;;;;;23.20;63.50;;;;;;1541724;76;1115;-59
2022/11/03 10:48:17;;;;;;;;;;;23.10;64.10;;;;;;1547427;75;786;-58
2022/11/03 10:50:23;;;;;;;;;;;23.20;65.20;;;;;;1542403;75;1949;-56
2022/11/03 10:52:25;;;;;;;;;;;23.20;65.70;;;;;;1553694;75;1165;-57
2022/11/03 10:54:29;;;;;;;;;;;23.10;65.90;;;;;;1545340;75;827;-55
2022/11/03 10:56:31;;;;;;;;;;;23.20;66.40;;;;;;1542371;75;1894;-57
2022/11/03 10:58:33;;;;;;;;;;;23.10;67.00;;;;;;1551983;75;704;-57
2022/11/03 11:00:35;;;;;;;;;;;23.20;67.20;;;;;;1552049;75;792;-57
2022/11/03 11:02:40;;;;;;;;;;;23.20;67.50;;;;;;1551069;75;856;-55
2022/11/03 11:04:40;;;;;;;;;;;23.20;67.30;;;;;;1552205;75;1534;-56
2022/11/03 11:06:42;;;;;;;;;;;23.20;67.50;;;;;;1553885;75;1150;-55
2022/11/03 11:08:44;;;;;;;;;;;23.30;67.90;;;;;;1537983;75;682;-57
2022/11/03 11:10:46;;;;;;;;;;;23.30;67.70;;;;;;1548813;75;1901;-59
2022/11/03 11:13:04;;;;;;;;;;;23.30;67.50;;;;;;1540519;75;652;-57
2022/11/03 11:15:07;;;;;;;;;;;23.30;67.30;;;;;;1542394;75;770;-59
2022/11/03 11:17:11;;;;;;;;;;;23.40;66.30;;;;;;1549347;75;1516;-57
2022/11/03 11:19:13;;;;;;;;;;;23.50;65.90;;;;;;1547121;75;1729;-59
2022/11/03 11:21:16;;;;;;;;;;;23.60;65.40;;;;;;1540721;75;797;-59
2022/11/03 11:23:29;;;;;;;;;;;23.50;66.30;;;;;;1534104;75;745;-60
2022/11/03 11:25:32;;;;;;;;;;;23.40;66.10;;;;;;1532825;75;682;-59
2022/11/03 11:27:42;;;;;;;;;;;23.50;65.90;;;;;;1538644;75;1727;-55
2022/11/03 11:29:44;;;;;;;;;;;23.50;65.50;;;;;;1549254;75;783;-58
2022/11/03 11:31:45;;;;;;;;;;;23.60;64.90;;;;;;1544807;75;1921;-59
2022/11/03 11:33:47;;;;;;;;;;;23.70;64.50;;;;;;1542543;75;723;-58
2022/11/03 11:35:51;;;;;;;;;;;23.70;63.90;;;;;;1545259;75;749;-58
2022/11/03 11:37:53;;;;;;;;;;;23.90;63.60;;;;;;1547149;75;1115;-59
2022/11/03 11:39:55;;;;;;;;;;;23.90;63.20;;;;;;1552259;75;766;-61
2022/11/03 11:42:06;;;;;;;;;;;23.90;63.00;;;;;;1547562;75;686;-56
2022/11/03 11:44:22;;;;;;;;;;;23.90;62.90;;;;;;1538789;76;617;-58
2022/11/03 11:46:35;;;;;;;;;;;23.90;62.70;;;;;;1494793;76;1293;-57
2022/11/03 11:48:36;;;;;;;;;;;23.90;62.70;;;;;;1546674;75;2008;-58
2022/11/03 11:50:38;;;;;;;;;;;23.90;62.70;;;;;;1537474;75;1929;-58
2022/11/03 11:52:44;;;;;;;;;;;23.90;62.60;;;;;;1551303;75;704;-59
2022/11/03 11:54:46;;;;;;;;;;;24.00;62.50;;;;;;1540082;75;765;-58
2022/11/03 11:56:48;;;;;;;;;;;24.00;62.40;;;;;;1543312;75;1093;-56
2022/11/03 11:58:51;;;;;;;;;;;24.00;62.30;;;;;;1548798;75;747;-57
2022/11/03 12:00:54;;;;;;;;;;;24.00;62.30;;;;;;1550650;75;682;-57
2022/11/03 12:02:56;;;;;;;;;;;24.00;62.10;;;;;;1547124;75;2082;-56
2022/11/03 12:05:02;;;;;;;;;;;24.00;62.10;;;;;;1548355;75;816;-58
2022/11/03 12:07:04;;;;;;;;;;;24.00;62.20;;;;;;1550457;75;1142;-58
2022/11/03 12:09:06;;;;;;;;;;;24.00;62.00;;;;;;1551738;75;732;-56
2022/11/03 12:11:09;;;;;;;;;;;24.00;61.90;;;;;;1543385;75;1935;-59
2022/11/03 12:13:13;;;;;;;;;;;24.00;61.80;;;;;;1543312;76;702;-58
2022/11/03 12:15:33;;;;;;;;;;;24.00;61.80;;;;;;1544285;75;1640;-59
2022/11/03 12:17:35;;;;;;;;;;;24.00;61.70;;;;;;1544660;76;1231;-59
2022/11/03 12:19:38;;;;;;;;;;;23.90;61.80;;;;;;1536118;75;763;-58
2022/11/03 12:21:47;;;;;;;;;;;24.00;61.70;;;;;;1557128;75;783;-57
2022/11/03 12:23:49;;;;;;;;;;;23.90;61.70;;;;;;1552528;75;627;-58
2022/11/03 12:25:51;;;;;;;;;;;24.00;61.60;;;;;;1548887;75;760;-60
2022/11/03 12:27:53;;;;;;;;;;;24.00;61.60;;;;;;1539791;75;1103;-57
2022/11/03 12:29:58;;;;;;;;;;;24.00;61.60;;;;;;1546130;75;655;-58
2022/11/03 12:32:00;;;;;;;;;;;24.00;61.60;;;;;;1556211;75;1889;-60
2022/11/03 12:34:02;;;;;;;;;;;24.00;61.60;;;;;;1545070;75;740;-57